Beaminster, United Kingdom
Current Conditions -  °F | °C
As of 7:50 PM on Friday 31 Oct 2014 (Local Time) from EGDY Reporting Station
Clear Clear  
Wind Chill: 18°   Ceiling: Unl
Heat Index: 18°   Visibility: 6mi
Dew Point: 14°   Wind: 17mph
Humidity: 77%   Direction: 190°S
Pressure: 29.91"   Gusts: NA
Location:  50.81°N, 2.74°W
Report Text: EGDY 311950Z AUTO 19015KT 9999 NCD 18/14 Q1013
Loading
Personal Weather Stations






























Interactive Weather Map
Tropical Storm Tracking
New forecast layout! Learn more

10-Day Weather Forecast

Advertisements
Track Severe Weather on mobile